Chiricana — 3EKU3 — position and weather

sailwx.info

Track history (hours):
 
Tides and Currents Weather Stations Pressure Air Temp Water Temp Dewpoint Dewpoint Depression Visibility Wind Speed Wind Dir Waves Ship Positions

Chiricana

Last reported at 2017-Aug-22 18:33 UTC. Time now 2017-Aug-22 22:27 UTC.
Position N 31°16' E 121°51'.

Length 300 m; draft 9.7 m.

Type: Ship (hazmat cat D). MMSI: 372829000.

Date/timePositionNaut miles runAvg speedWind from/ knotsBaromVisibWave heightAir tempDewpointWater temp
2017-Aug-22 18:33N 31°16' E 121°51'112.4
2017-Aug-22 18:26N 31°17' E 121°50'612.4
2017-Aug-22 17:54N 31°19' E 121°43'2 5.6
2017-Aug-22 17:30N 31°20' E 121°40'0 0.9
2017-Aug-22 16:59N 31°20' E 121°40'0 0.0
2017-Aug-22 16:23N 31°20' E 121°40'0 0.0
2017-Aug-22 15:59N 31°20' E 121°40'0 0.0
2017-Aug-22 15:29N 31°20' E 121°40'0 0.0
2017-Aug-22 12:35N 31°20' E 121°40'0 0.0
2017-Aug-22 07:11N 31°20' E 121°40'0 0.0
2017-Aug-22 06:59N 31°20' E 121°40'0 0.0
2017-Aug-22 05:05N 31°20' E 121°40'0 0.0
2017-Aug-22 04:59N 31°20' E 121°40'0 0.1
2017-Aug-22 04:28N 31°20' E 121°40'0 1.0
2017-Aug-22 04:00N 31°20' E 121°40'4 8.9
2017-Aug-22 03:30N 31°19' E 121°45'611.2
2017-Aug-22 03:00N 31°17' E 121°51'51 1.3
2017-Aug-20 10:32N 31°09' E 122°50'0 0.7
2017-Aug-20 10:27N 31°09' E 122°50'6 8.5
2017-Aug-20 09:45N 31°07' E 122°56'512.1
2017-Aug-20 09:18N 31°03' E 123°01'2711.7
2017-Aug-20 06:58N 30°36' E 123°07'612.2
2017-Aug-20 06:30N 30°31' E 123°10'4113.1
2017-Aug-20 03:23N 29°50' E 123°04'615.4
2017-Aug-20 02:58N 29°44' E 123°04'2617.2
2017-Aug-20 01:27N 29°18' E 123°04'2117.1
2017-Aug-20 00:13N 28°58' E 122°55'717.7
2017-Aug-19 23:49N 28°53' E 122°50'25417.5
2017-Aug-19 09:16N 25°06' E 120°42'517.3
2017-Aug-19 09:00N 25°02' E 120°39'1917.4
2017-Aug-19 07:54N 24°45' E 120°29'1918.0
2017-Aug-19 06:49N 24°28' E 120°20'2617.5
2017-Aug-19 05:22N 24°05' E 120°07'1216.3
2017-Aug-19 04:38N 23°54' E 120°01'215.5
2017-Aug-19 04:30N 23°52' E 120°00'815.7
2017-Aug-19 03:58N 23°44' E 119°57'816.5
2017-Aug-19 03:30N 23°37' E 119°54'916.5
2017-Aug-19 02:57N 23°28' E 119°54'716.2
2017-Aug-19 02:30N 23°21' E 119°54'916.4
2017-Aug-19 01:59N 23°12' E 119°54'1715.7
2017-Aug-19 00:56N 22°56' E 119°50'  
2017-Aug-15 02:13N 01°15' E 104°04'416.3
2017-Aug-15 01:58N 01°14' E 103°60'817.0
2017-Aug-15 01:30N 01°12' E 103°52'816.7
2017-Aug-15 01:01N 01°07' E 103°45'816.4
2017-Aug-15 00:31N 01°03' E 103°38'917.2
2017-Aug-15 00:01N 01°07' E 103°31'816.1
2017-Aug-14 23:30N 01°12' E 103°24'815.7
2017-Aug-14 23:00N 01°16' E 103°18'  
Track history (hours):
 
Tides and Currents Weather Stations Pressure Air Temp Water Temp Dewpoint Dewpoint Depression Visibility Wind Speed Wind Dir Waves Ship Positions

Chiricana

Last reported at 2017-Aug-22 18:33 UTC. Time now 2017-Aug-22 22:27 UTC.
Position N 31°16' E 121°51'.

Length 300 m; draft 9.7 m.

Type: Ship (hazmat cat D). MMSI: 372829000.

Date/timePositionNaut miles runAvg speedWind from/ knotsBaromVisibWave heightAir tempDewpointWater temp
2017-Aug-22 18:33N 31°16' E 121°51'112.4
2017-Aug-22 18:26N 31°17' E 121°50'612.4
2017-Aug-22 17:54N 31°19' E 121°43'2 5.6
2017-Aug-22 17:30N 31°20' E 121°40'0 0.9
2017-Aug-22 16:59N 31°20' E 121°40'0 0.0
2017-Aug-22 16:23N 31°20' E 121°40'0 0.0
2017-Aug-22 15:59N 31°20' E 121°40'0 0.0
2017-Aug-22 15:29N 31°20' E 121°40'0 0.0
2017-Aug-22 12:35N 31°20' E 121°40'0 0.0
2017-Aug-22 07:11N 31°20' E 121°40'0 0.0
2017-Aug-22 06:59N 31°20' E 121°40'0 0.0
2017-Aug-22 05:05N 31°20' E 121°40'0 0.0
2017-Aug-22 04:59N 31°20' E 121°40'0 0.1
2017-Aug-22 04:28N 31°20' E 121°40'0 1.0
2017-Aug-22 04:00N 31°20' E 121°40'4 8.9
2017-Aug-22 03:30N 31°19' E 121°45'611.2
2017-Aug-22 03:00N 31°17' E 121°51'51 1.3
2017-Aug-20 10:32N 31°09' E 122°50'0 0.7
2017-Aug-20 10:27N 31°09' E 122°50'6 8.5
2017-Aug-20 09:45N 31°07' E 122°56'512.1
2017-Aug-20 09:18N 31°03' E 123°01'2711.7
2017-Aug-20 06:58N 30°36' E 123°07'612.2
2017-Aug-20 06:30N 30°31' E 123°10'4113.1
2017-Aug-20 03:23N 29°50' E 123°04'615.4
2017-Aug-20 02:58N 29°44' E 123°04'2617.2
2017-Aug-20 01:27N 29°18' E 123°04'2117.1
2017-Aug-20 00:13N 28°58' E 122°55'717.7
2017-Aug-19 23:49N 28°53' E 122°50'25417.5
2017-Aug-19 09:16N 25°06' E 120°42'517.3
2017-Aug-19 09:00N 25°02' E 120°39'1917.4
2017-Aug-19 07:54N 24°45' E 120°29'1918.0
2017-Aug-19 06:49N 24°28' E 120°20'2617.5
2017-Aug-19 05:22N 24°05' E 120°07'1216.3
2017-Aug-19 04:38N 23°54' E 120°01'215.5
2017-Aug-19 04:30N 23°52' E 120°00'815.7
2017-Aug-19 03:58N 23°44' E 119°57'816.5
2017-Aug-19 03:30N 23°37' E 119°54'916.5
2017-Aug-19 02:57N 23°28' E 119°54'716.2
2017-Aug-19 02:30N 23°21' E 119°54'916.4
2017-Aug-19 01:59N 23°12' E 119°54'1715.7
2017-Aug-19 00:56N 22°56' E 119°50'  
2017-Aug-15 02:13N 01°15' E 104°04'416.3
2017-Aug-15 01:58N 01°14' E 103°60'817.0
2017-Aug-15 01:30N 01°12' E 103°52'816.7
2017-Aug-15 01:01N 01°07' E 103°45'816.4
2017-Aug-15 00:31N 01°03' E 103°38'917.2
2017-Aug-15 00:01N 01°07' E 103°31'816.1
2017-Aug-14 23:30N 01°12' E 103°24'815.7
2017-Aug-14 23:00N 01°16' E 103°18'  

Dump ship's entire track history